Hlavní strana
METAR-TAF:

METAR-TAF

Letiště :

Kirkenes, Norsko

zeměpisná šířka: 69-44N, zeměpisná délka: 029-54E, výška: 9 m

Aktuální stav počasí

Zpráva byla vytvořena před 32 minutami, v 07:50 UTC
Jihojihovýchodní vítr 7 kt
Teplota -9°C
Vlhkost vzduchu 92%
Tlak 1027 hPa
Viditelnost 10 km a více
Oblačno až skoro zataženo ve výšce 600 ft

METAR: ENKR 180750Z 16007KT 9999 BKN006 M09/M10 Q1027 RMK WIND 731FT 18009KT

Čas: 09:22 (08:22 UTC)

Předpověď počasí

Zpráva byla vytvořena před 3 hodinami a 22 minutami, v 05:00 UTC
Předpověď platná od 18 v 06 UTC do 18 v 15 UTC
Jižní vítr 8 kt
Viditelnost 10 km a více
Skoro jasno ve výšce 500 ft
Polojasno ve výšce 3000 ft
Pravděpodobnost 30% :
Dočasný
od 18 v 06 UTC do 18 v 15 UTC
Viditelnost: 2000 m
Oblačno až skoro zataženo ve výšce 200 ft
chuchvalce mlhy

TAF: ENKR 180500Z 1806/1815 18008KT 9999 FEW005 SCT030 PROB30 TEMPO 1806/1815 2000 BCFG BKN002

Stav a předpovědi počasí z více než 4 000 letišť (zprávy METAR a TAF).

Červené a žluté tečky na mapě představují dostupné meteorologické stanice.

Když kurzor umístíte na tečku, zobrazí se název stanice.

Pak kliknutím zobrazíte stav a předpověď počasí.

Chcete-li změnit mapu, kliknutím na zelené tlačítko se znaménkem +mapu přiblížíte, kliknutím na zelené tlačítko se znaménkem – mapu oddálíte a kliknutím na zelené šipky přejdete na sousední mapy.


METAR-TAF: